sensor_id;sensor_type;location;lat;lon;timestamp;pressure;altitude;pressure_sealevel;temperature;humidity
49055;BME280;35405;52.344;14.530;2023-02-28T06:19:24;67307.06;;;-147.10;100.00
49055;BME280;35405;52.344;14.530;2023-02-28T06:21:50;67307.06;;;-147.10;100.00
49055;BME280;35405;52.344;14.530;2023-02-28T06:24:17;67307.06;;;-147.10;100.00
49055;BME280;35405;52.344;14.530;2023-02-28T06:26:42;67307.06;;;-147.10;100.00
49055;BME280;35405;52.344;14.530;2023-02-28T06:29:08;67307.06;;;-147.10;100.00
49055;BME280;35405;52.344;14.530;2023-02-28T06:31:33;67307.06;;;-147.10;100.00
49055;BME280;35405;52.344;14.530;2023-02-28T06:33:58;67307.06;;;-147.10;100.00
49055;BME280;35405;52.344;14.530;2023-02-28T06:36:24;67307.06;;;-147.10;100.00
49055;BME280;35405;52.344;14.530;2023-02-28T06:38:49;67307.06;;;-147.10;100.00
49055;BME280;35405;52.344;14.530;2023-02-28T06:41:19;67307.06;;;-147.10;100.00
49055;BME280;35405;52.344;14.530;2023-02-28T06:43:44;67307.06;;;-147.10;100.00
49055;BME280;35405;52.344;14.530;2023-02-28T06:46:11;67307.06;;;-147.10;100.00
49055;BME280;35405;52.344;14.530;2023-02-28T06:48:36;67307.06;;;-147.10;100.00
49055;BME280;35405;52.344;14.530;2023-02-28T06:51:06;67307.06;;;-147.10;100.00
49055;BME280;35405;52.344;14.530;2023-02-28T06:53:31;67307.06;;;-147.10;100.00
49055;BME280;35405;52.344;14.530;2023-02-28T06:55:56;67307.06;;;-147.10;100.00
49055;BME280;35405;52.344;14.530;2023-02-28T06:58:22;67307.06;;;-147.10;100.00
49055;BME280;35405;52.344;14.530;2023-02-28T07:00:49;67307.06;;;-147.10;100.00
49055;BME280;35405;52.344;14.530;2023-02-28T07:03:15;67307.06;;;-147.10;100.00
49055;BME280;35405;52.344;14.530;2023-02-28T07:05:40;67307.06;;;-147.10;100.00
49055;BME280;35405;52.344;14.530;2023-02-28T07:08:06;67307.06;;;-147.10;100.00
49055;BME280;35405;52.344;14.530;2023-02-28T07:10:33;67307.06;;;-147.10;100.00
49055;BME280;35405;52.344;14.530;2023-02-28T07:12:59;67307.06;;;-147.10;100.00
49055;BME280;35405;52.344;14.530;2023-02-28T07:15:24;67307.06;;;-147.10;100.00
49055;BME280;35405;52.344;14.530;2023-02-28T07:17:49;67307.06;;;-147.10;100.00
49055;BME280;35405;52.344;14.530;2023-02-28T10:22:23;102467.13;;;1.89;100.00
49055;BME280;35405;52.344;14.530;2023-02-28T10:24:51;102467.53;;;2.08;100.00
49055;BME280;35405;52.344;14.530;2023-02-28T10:29:46;102467.38;;;2.09;100.00
49055;BME280;35405;52.344;14.530;2023-02-28T10:32:18;102473.66;;;2.01;100.00
49055;BME280;35405;52.344;14.530;2023-02-28T10:34:44;102472.00;;;2.00;100.00
49055;BME280;35405;52.344;14.530;2023-02-28T10:37:10;102463.03;;;2.08;100.00
49055;BME280;35405;52.344;14.530;2023-02-28T10:42:02;102456.06;;;2.14;100.00
49055;BME280;35405;52.344;14.530;2023-02-28T10:44:27;102457.78;;;2.00;100.00
49055;BME280;35405;52.344;14.530;2023-02-28T10:46:52;102457.66;;;2.08;100.00
49055;BME280;35405;52.344;14.530;2023-02-28T10:49:22;102451.53;;;2.14;100.00
49055;BME280;35405;52.344;14.530;2023-02-28T10:51:49;102448.63;;;2.16;100.00
49055;BME280;35405;52.344;14.530;2023-02-28T10:54:18;102453.00;;;2.17;100.00
49055;BME280;35405;52.344;14.530;2023-02-28T10:56:44;102454.31;;;2.06;100.00
49055;BME280;35405;52.344;14.530;2023-02-28T10:59:29;102447.16;;;2.13;100.00
49055;BME280;35405;52.344;14.530;2023-02-28T11:01:57;102447.03;;;2.21;100.00
49055;BME280;35405;52.344;14.530;2023-02-28T11:07:00;102450.91;;;2.40;100.00
49055;BME280;35405;52.344;14.530;2023-02-28T11:09:27;102448.44;;;2.39;100.00
49055;BME280;35405;52.344;14.530;2023-02-28T11:11:54;102449.81;;;2.35;100.00
49055;BME280;35405;52.344;14.530;2023-02-28T11:14:29;102451.91;;;2.33;100.00
49055;BME280;35405;52.344;14.530;2023-02-28T11:16:57;102447.41;;;2.40;100.00
49055;BME280;35405;52.344;14.530;2023-02-28T11:19:24;102449.38;;;2.52;100.00
49055;BME280;35405;52.344;14.530;2023-02-28T11:21:52;102454.41;;;2.62;100.00
49055;BME280;35405;52.344;14.530;2023-02-28T11:24:25;102448.09;;;2.48;100.00
49055;BME280;35405;52.344;14.530;2023-02-28T11:26:51;102459.53;;;2.57;100.00
49055;BME280;35405;52.344;14.530;2023-02-28T11:29:19;102461.34;;;2.50;100.00
49055;BME280;35405;52.344;14.530;2023-02-28T11:32:05;102455.50;;;2.68;100.00
49055;BME280;35405;52.344;14.530;2023-02-28T11:34:31;102454.94;;;2.79;100.00
49055;BME280;35405;52.344;14.530;2023-02-28T11:36:57;102460.13;;;2.81;100.00
49055;BME280;35405;52.344;14.530;2023-02-28T11:39:23;102459.19;;;2.67;100.00
49055;BME280;35405;52.344;14.530;2023-02-28T11:42:00;102444.06;;;2.59;100.00
49055;BME280;35405;52.344;14.530;2023-02-28T11:57:16;102433.00;;;2.75;100.00
49055;BME280;35405;52.344;14.530;2023-02-28T12:02:26;102433.06;;;2.82;100.00
49055;BME280;35405;52.344;14.530;2023-02-28T12:10:05;102407.38;;;2.73;100.00
49055;BME280;35405;52.344;14.530;2023-02-28T12:12:44;102411.09;;;2.72;100.00
49055;BME280;35405;52.344;14.530;2023-02-28T12:23:03;102392.16;;;2.87;100.00
49055;BME280;35405;52.344;14.530;2023-02-28T12:28:03;102396.75;;;2.93;100.00
49055;BME280;35405;52.344;14.530;2023-02-28T12:30:30;102392.63;;;2.97;100.00
49055;BME280;35405;52.344;14.530;2023-02-28T12:33:03;102381.88;;;2.97;100.00
49055;BME280;35405;52.344;14.530;2023-02-28T12:38:17;102376.50;;;2.97;100.00
49055;BME280;35405;52.344;14.530;2023-02-28T12:40:45;102365.31;;;2.93;100.00
49055;BME280;35405;52.344;14.530;2023-02-28T12:43:15;102370.69;;;2.87;100.00
49055;BME280;35405;52.344;14.530;2023-02-28T12:45:43;102364.25;;;2.88;100.00
49055;BME280;35405;52.344;14.530;2023-02-28T12:48:13;102353.34;;;2.89;100.00
49055;BME280;35405;52.344;14.530;2023-02-28T12:50:40;102346.25;;;2.82;100.00
49055;BME280;35405;52.344;14.530;2023-02-28T12:55:47;102349.72;;;2.75;100.00
49055;BME280;35405;52.344;14.530;2023-02-28T13:06:05;102333.44;;;2.77;100.00
49055;BME280;35405;52.344;14.530;2023-02-28T13:11:19;102339.84;;;2.83;100.00
49055;BME280;35405;52.344;14.530;2023-02-28T13:13:47;102337.00;;;2.91;100.00
49055;BME280;35405;52.344;14.530;2023-02-28T13:16:13;102339.69;;;2.97;100.00
49055;BME280;35405;52.344;14.530;2023-02-28T13:18:45;102340.31;;;2.93;100.00
49055;BME280;35405;52.344;14.530;2023-02-28T13:21:23;102345.84;;;2.85;100.00
49055;BME280;35405;52.344;14.530;2023-02-28T13:26:22;102330.78;;;2.90;100.00
49055;BME280;35405;52.344;14.530;2023-02-28T13:31:15;102338.66;;;2.92;100.00
49055;BME280;35405;52.344;14.530;2023-02-28T13:36:30;102345.38;;;3.16;100.00
49055;BME280;35405;52.344;14.530;2023-02-28T13:39:00;102339.78;;;3.11;100.00
49055;BME280;35405;52.344;14.530;2023-02-28T13:44:03;102338.34;;;3.15;100.00
49055;BME280;35405;52.344;14.530;2023-02-28T13:46:30;102340.19;;;3.14;100.00
49055;BME280;35405;52.344;14.530;2023-02-28T13:51:49;102333.97;;;3.07;100.00
49055;BME280;35405;52.344;14.530;2023-02-28T14:21:24;102318.00;;;2.99;100.00
49055;BME280;35405;52.344;14.530;2023-02-28T14:46:39;102305.94;;;2.82;100.00
49055;BME280;35405;52.344;14.530;2023-02-28T14:49:12;102290.84;;;2.74;100.00
49055;BME280;35405;52.344;14.530;2023-02-28T14:51:49;102304.63;;;2.64;100.00
49055;BME280;35405;52.344;14.530;2023-02-28T15:09:16;102291.16;;;2.58;100.00
49055;BME280;35405;52.344;14.530;2023-02-28T15:11:41;102285.63;;;2.66;100.00
49055;BME280;35405;52.344;14.530;2023-02-28T15:14:20;102274.22;;;2.57;100.00
49055;BME280;35405;52.344;14.530;2023-02-28T15:16:46;102285.75;;;2.51;100.00
49055;BME280;35405;52.344;14.530;2023-02-28T15:19:17;102287.41;;;2.52;100.00
49055;BME280;35405;52.344;14.530;2023-02-28T15:21:46;102285.78;;;2.58;100.00
49055;BME280;35405;52.344;14.530;2023-02-28T15:24:18;102282.44;;;2.49;100.00
49055;BME280;35405;52.344;14.530;2023-02-28T15:26:51;102277.69;;;2.51;100.00
49055;BME280;35405;52.344;14.530;2023-02-28T15:29:21;102274.22;;;2.57;100.00
49055;BME280;35405;52.344;14.530;2023-02-28T15:31:49;102277.28;;;2.47;100.00
49055;BME280;35405;52.344;14.530;2023-02-28T15:39:52;102283.19;;;2.36;100.00
49055;BME280;35405;52.344;14.530;2023-02-28T15:42:18;102286.28;;;2.33;100.00
49055;BME280;35405;52.344;14.530;2023-02-28T15:44:45;102282.25;;;2.22;100.00
49055;BME280;35405;52.344;14.530;2023-02-28T15:47:29;102295.69;;;2.22;100.00
49055;BME280;35405;52.344;14.530;2023-02-28T15:49:56;102282.91;;;2.24;100.00
49055;BME280;35405;52.344;14.530;2023-02-28T15:54:56;102288.41;;;2.16;100.00
49055;BME280;35405;52.344;14.530;2023-02-28T15:57:24;102282.81;;;2.11;100.00
49055;BME280;35405;52.344;14.530;2023-02-28T15:59:54;102290.22;;;2.09;100.00
49055;BME280;35405;52.344;14.530;2023-02-28T16:02:21;102296.19;;;2.04;100.00
49055;BME280;35405;52.344;14.530;2023-02-28T16:07:46;102291.03;;;2.03;100.00
49055;BME280;35405;52.344;14.530;2023-02-28T16:10:13;102282.09;;;1.96;100.00
49055;BME280;35405;52.344;14.530;2023-02-28T16:12:39;102289.63;;;1.86;100.00
49055;BME280;35405;52.344;14.530;2023-02-28T16:15:09;102290.34;;;1.73;100.00
49055;BME280;35405;52.344;14.530;2023-02-28T16:17:41;102284.94;;;1.66;100.00
49055;BME280;35405;52.344;14.530;2023-02-28T16:20:17;102292.66;;;1.54;100.00
49055;BME280;35405;52.344;14.530;2023-02-28T16:22:43;102289.72;;;1.49;100.00
49055;BME280;35405;52.344;14.530;2023-02-28T16:25:18;102290.16;;;1.53;100.00
49055;BME280;35405;52.344;14.530;2023-02-28T16:27:45;102290.75;;;1.48;100.00
49055;BME280;35405;52.344;14.530;2023-02-28T16:30:19;102284.03;;;1.37;100.00
49055;BME280;35405;52.344;14.530;2023-02-28T16:32:44;102287.22;;;1.26;100.00
49055;BME280;35405;52.344;14.530;2023-02-28T16:35:10;102285.88;;;1.16;100.00
49055;BME280;35405;52.344;14.530;2023-02-28T16:37:38;102287.84;;;1.07;100.00
49055;BME280;35405;52.344;14.530;2023-02-28T16:40:21;102282.84;;;1.04;100.00
49055;BME280;35405;52.344;14.530;2023-02-28T16:42:47;102281.09;;;0.96;100.00
49055;BME280;35405;52.344;14.530;2023-02-28T16:45:26;102290.09;;;0.88;100.00
49055;BME280;35405;52.344;14.530;2023-02-28T16:47:52;102286.03;;;0.78;100.00
49055;BME280;35405;52.344;14.530;2023-02-28T16:50:22;102286.53;;;0.66;100.00
49055;BME280;35405;52.344;14.530;2023-02-28T16:52:48;102293.09;;;0.64;100.00
49055;BME280;35405;52.344;14.530;2023-02-28T16:55:14;102294.09;;;0.63;100.00
49055;BME280;35405;52.344;14.530;2023-02-28T16:57:39;102290.22;;;0.65;100.00
49055;BME280;35405;52.344;14.530;2023-02-28T17:00:06;102292.34;;;0.70;100.00
49055;BME280;35405;52.344;14.530;2023-02-28T17:02:33;102290.59;;;0.62;100.00
49055;BME280;35405;52.344;14.530;2023-02-28T17:04:58;102287.28;;;0.60;100.00
49055;BME280;35405;52.344;14.530;2023-02-28T17:07:23;102283.28;;;0.56;100.00
49055;BME280;35405;52.344;14.530;2023-02-28T17:09:49;102286.53;;;0.52;100.00
49055;BME280;35405;52.344;14.530;2023-02-28T17:12:14;102301.28;;;0.48;100.00
49055;BME280;35405;52.344;14.530;2023-02-28T17:14:39;102293.00;;;0.42;100.00
49055;BME280;35405;52.344;14.530;2023-02-28T17:17:05;102297.41;;;0.35;100.00
49055;BME280;35405;52.344;14.530;2023-02-28T17:19:30;102290.47;;;0.26;100.00
49055;BME280;35405;52.344;14.530;2023-02-28T17:21:55;102293.59;;;0.15;100.00
49055;BME280;35405;52.344;14.530;2023-02-28T17:24:21;102297.69;;;-0.12;100.00
49055;BME280;35405;52.344;14.530;2023-02-28T17:26:46;102294.78;;;-0.40;100.00
49055;BME280;35405;52.344;14.530;2023-02-28T17:29:29;102296.38;;;-0.54;100.00
49055;BME280;35405;52.344;14.530;2023-02-28T17:31:54;102302.63;;;-0.62;100.00
49055;BME280;35405;52.344;14.530;2023-02-28T17:34:20;102309.31;;;-0.66;100.00
49055;BME280;35405;52.344;14.530;2023-02-28T17:36:47;102302.25;;;-0.59;100.00
49055;BME280;35405;52.344;14.530;2023-02-28T17:39:13;102303.28;;;-0.60;100.00
49055;BME280;35405;52.344;14.530;2023-02-28T17:41:48;102304.00;;;-0.66;100.00
49055;BME280;35405;52.344;14.530;2023-02-28T17:44:14;102298.50;;;-0.73;100.00
49055;BME280;35405;52.344;14.530;2023-02-28T17:46:39;102304.97;;;-0.67;100.00
49055;BME280;35405;52.344;14.530;2023-02-28T17:49:04;102300.66;;;-0.68;100.00
49055;BME280;35405;52.344;14.530;2023-02-28T17:51:30;102299.78;;;-0.92;100.00
49055;BME280;35405;52.344;14.530;2023-02-28T17:53:55;102302.19;;;-1.05;100.00
49055;BME280;35405;52.344;14.530;2023-02-28T17:56:24;102298.63;;;-1.28;100.00
49055;BME280;35405;52.344;14.530;2023-02-28T17:58:50;102305.03;;;-1.54;100.00
49055;BME280;35405;52.344;14.530;2023-02-28T18:01:15;102298.41;;;-1.66;100.00
49055;BME280;35405;52.344;14.530;2023-02-28T18:03:41;102294.75;;;-1.65;100.00
49055;BME280;35405;52.344;14.530;2023-02-28T18:06:06;102293.41;;;-1.69;100.00
49055;BME280;35405;52.344;14.530;2023-02-28T18:08:32;102294.25;;;-1.69;100.00
49055;BME280;35405;52.344;14.530;2023-02-28T18:10:59;102288.56;;;-1.66;100.00
49055;BME280;35405;52.344;14.530;2023-02-28T18:13:24;102312.09;;;-1.69;100.00
49055;BME280;35405;52.344;14.530;2023-02-28T18:15:50;102309.13;;;-1.82;100.00
49055;BME280;35405;52.344;14.530;2023-02-28T18:18:15;102306.66;;;-1.92;100.00
49055;BME280;35405;52.344;14.530;2023-02-28T18:20:40;102314.13;;;-1.96;100.00
49055;BME280;35405;52.344;14.530;2023-02-28T18:23:06;102303.50;;;-2.12;100.00
49055;BME280;35405;52.344;14.530;2023-02-28T18:25:31;102318.50;;;-2.19;100.00
49055;BME280;35405;52.344;14.530;2023-02-28T18:27:56;102323.31;;;-2.31;100.00
49055;BME280;35405;52.344;14.530;2023-02-28T18:30:26;102317.97;;;-2.39;100.00
49055;BME280;35405;52.344;14.530;2023-02-28T18:32:54;102319.78;;;-2.48;100.00
49055;BME280;35405;52.344;14.530;2023-02-28T18:35:19;102316.63;;;-2.51;100.00
49055;BME280;35405;52.344;14.530;2023-02-28T18:38:03;102315.16;;;-2.46;100.00
49055;BME280;35405;52.344;14.530;2023-02-28T18:40:28;102314.66;;;-2.33;100.00
49055;BME280;35405;52.344;14.530;2023-02-28T18:42:54;102305.81;;;-2.34;100.00
49055;BME280;35405;52.344;14.530;2023-02-28T18:45:19;102316.47;;;-2.42;100.00
49055;BME280;35405;52.344;14.530;2023-02-28T18:47:44;102311.13;;;-2.50;100.00
49055;BME280;35405;52.344;14.530;2023-02-28T18:50:10;102321.09;;;-2.68;100.00
49055;BME280;35405;52.344;14.530;2023-02-28T18:52:35;102336.53;;;-2.80;100.00
49055;BME280;35405;52.344;14.530;2023-02-28T18:55:00;102331.06;;;-2.79;100.00
49055;BME280;35405;52.344;14.530;2023-02-28T18:57:25;102321.44;;;-2.63;100.00
49055;BME280;35405;52.344;14.530;2023-02-28T18:59:51;102320.44;;;-2.70;100.00
49055;BME280;35405;52.344;14.530;2023-02-28T19:02:16;102325.03;;;-2.89;100.00
49055;BME280;35405;52.344;14.530;2023-02-28T19:04:41;102319.50;;;-3.04;100.00
49055;BME280;35405;52.344;14.530;2023-02-28T19:07:06;102323.47;;;-3.08;100.00
49055;BME280;35405;52.344;14.530;2023-02-28T19:09:32;102324.94;;;-3.13;100.00
49055;BME280;35405;52.344;14.530;2023-02-28T19:11:57;102319.81;;;-3.15;100.00
49055;BME280;35405;52.344;14.530;2023-02-28T19:14:22;102323.94;;;-3.20;100.00
49055;BME280;35405;52.344;14.530;2023-02-28T19:16:47;102326.91;;;-3.24;100.00
49055;BME280;35405;52.344;14.530;2023-02-28T19:19:14;102325.22;;;-3.33;100.00
49055;BME280;35405;52.344;14.530;2023-02-28T19:21:39;102321.53;;;-3.32;100.00
49055;BME280;35405;52.344;14.530;2023-02-28T19:24:04;102318.06;;;-3.32;100.00
49055;BME280;35405;52.344;14.530;2023-02-28T19:26:29;102308.25;;;-3.32;100.00
49055;BME280;35405;52.344;14.530;2023-02-28T19:29:00;102307.97;;;-3.20;100.00
49055;BME280;35405;52.344;14.530;2023-02-28T19:31:25;102309.13;;;-3.23;100.00
49055;BME280;35405;52.344;14.530;2023-02-28T19:33:51;102305.91;;;-3.35;100.00
49055;BME280;35405;52.344;14.530;2023-02-28T19:36:16;102311.41;;;-3.36;100.00
49055;BME280;35405;52.344;14.530;2023-02-28T19:38:42;102308.41;;;-3.33;100.00
49055;BME280;35405;52.344;14.530;2023-02-28T19:41:09;102310.56;;;-3.37;100.00
49055;BME280;35405;52.344;14.530;2023-02-28T19:43:34;102309.28;;;-3.25;100.00
49055;BME280;35405;52.344;14.530;2023-02-28T19:46:00;102311.63;;;-3.22;100.00
49055;BME280;35405;52.344;14.530;2023-02-28T19:48:25;102308.75;;;-3.28;100.00
49055;BME280;35405;52.344;14.530;2023-02-28T19:50:58;102302.22;;;-3.42;100.00
49055;BME280;35405;52.344;14.530;2023-02-28T19:53:25;102298.50;;;-3.57;100.00
49055;BME280;35405;52.344;14.530;2023-02-28T19:55:50;102304.06;;;-3.69;100.00
49055;BME280;35405;52.344;14.530;2023-02-28T19:58:17;102304.66;;;-3.83;100.00
49055;BME280;35405;52.344;14.530;2023-02-28T20:00:42;102305.97;;;-3.87;100.00
49055;BME280;35405;52.344;14.530;2023-02-28T20:03:07;102311.91;;;-3.93;100.00
49055;BME280;35405;52.344;14.530;2023-02-28T20:05:32;102300.28;;;-3.92;100.00
49055;BME280;35405;52.344;14.530;2023-02-28T20:07:58;102296.16;;;-3.86;100.00
49055;BME280;35405;52.344;14.530;2023-02-28T20:10:23;102305.66;;;-3.84;100.00
49055;BME280;35405;52.344;14.530;2023-02-28T20:12:48;102301.78;;;-3.89;100.00
49055;BME280;35405;52.344;14.530;2023-02-28T20:15:14;102307.72;;;-3.96;100.00
49055;BME280;35405;52.344;14.530;2023-02-28T20:17:40;102306.69;;;-4.03;100.00
49055;BME280;35405;52.344;14.530;2023-02-28T20:20:06;102311.00;;;-4.02;100.00
49055;BME280;35405;52.344;14.530;2023-02-28T20:22:35;102311.91;;;-3.93;100.00
49055;BME280;35405;52.344;14.530;2023-02-28T20:25:00;102307.00;;;-3.80;100.00
49055;BME280;35405;52.344;14.530;2023-02-28T20:27:25;102309.59;;;-3.62;100.00
49055;BME280;35405;52.344;14.530;2023-02-28T20:29:51;102294.63;;;-3.63;100.00
49055;BME280;35405;52.344;14.530;2023-02-28T20:32:17;102304.06;;;-3.69;100.00
49055;BME280;35405;52.344;14.530;2023-02-28T20:34:42;102293.44;;;-3.69;100.00
49055;BME280;35405;52.344;14.530;2023-02-28T20:37:07;102297.75;;;-3.68;100.00
49055;BME280;35405;52.344;14.530;2023-02-28T20:39:33;102285.53;;;-3.60;100.00
49055;BME280;35405;52.344;14.530;2023-02-28T20:41:58;102302.25;;;-3.68;100.00
49055;BME280;35405;52.344;14.530;2023-02-28T20:44:23;102300.34;;;-3.84;100.00
49055;BME280;35405;52.344;14.530;2023-02-28T20:46:48;102289.81;;;-3.94;100.00
49055;BME280;35405;52.344;14.530;2023-02-28T20:49:13;102298.84;;;-4.04;100.00
49055;BME280;35405;52.344;14.530;2023-02-28T20:51:39;102295.50;;;-4.06;100.00
49055;BME280;35405;52.344;14.530;2023-02-28T20:54:06;102303.75;;;-4.18;100.00
